createdAt,value
2018-10-05T00:00:17.454Z,991.12
2018-10-05T00:01:17.475Z,991.07
2018-10-05T00:02:17.503Z,991.11
2018-10-05T00:03:17.530Z,991.05
2018-10-05T00:04:17.555Z,991.07
2018-10-05T00:05:17.584Z,991.06
2018-10-05T00:06:17.603Z,991.06
2018-10-05T00:07:17.629Z,991.04
2018-10-05T00:08:17.657Z,991.05
2018-10-05T00:09:17.689Z,991.01
2018-10-05T00:10:17.705Z,991.01
2018-10-05T00:11:17.737Z,991.03
2018-10-05T00:12:17.764Z,991
2018-10-05T00:13:17.785Z,991.03
2018-10-05T00:14:17.808Z,990.98
2018-10-05T00:15:17.838Z,990.97
2018-10-05T00:16:17.858Z,990.99
2018-10-05T00:17:17.890Z,991
2018-10-05T00:18:17.914Z,990.99
2018-10-05T00:19:17.942Z,990.97
2018-10-05T00:20:18.024Z,990.99
2018-10-05T00:21:17.986Z,991
2018-10-05T00:22:18.013Z,990.99
2018-10-05T00:23:18.036Z,990.98
2018-10-05T00:24:18.066Z,990.98
2018-10-05T00:25:18.086Z,990.95
2018-10-05T00:26:18.110Z,990.93
2018-10-05T00:27:19.147Z,990.9
2018-10-05T00:28:18.165Z,990.92
2018-10-05T00:29:18.192Z,990.88
2018-10-05T00:30:18.218Z,990.94
2018-10-05T00:31:18.246Z,990.89
2018-10-05T00:32:18.333Z,990.89
2018-10-05T00:33:18.294Z,990.9
2018-10-05T00:34:18.315Z,990.89
2018-10-05T00:35:18.349Z,990.89
2018-10-05T00:36:18.370Z,990.88
2018-10-05T00:37:18.395Z,990.86
2018-10-05T00:38:18.420Z,990.87
2018-10-05T00:39:18.452Z,990.85
2018-10-05T00:40:18.470Z,990.85
2018-10-05T00:41:18.508Z,990.83
2018-10-05T00:42:18.523Z,990.81
2018-10-05T00:43:18.548Z,990.8
2018-10-05T00:44:18.575Z,990.79
2018-10-05T00:45:18.601Z,990.78
2018-10-05T00:46:18.625Z,990.73
2018-10-05T00:47:18.657Z,990.77
2018-10-05T00:48:18.683Z,990.68
2018-10-05T00:49:18.699Z,990.69
2018-10-05T00:50:18.729Z,990.66
2018-10-05T00:51:18.755Z,990.68
2018-10-05T00:52:18.778Z,990.61
2018-10-05T00:53:18.820Z,990.65
2018-10-05T00:54:18.831Z,990.61
2018-10-05T00:55:18.853Z,990.64
2018-10-05T00:56:18.886Z,990.63
2018-10-05T00:57:18.912Z,990.63
2018-10-05T00:58:18.940Z,990.59
2018-10-05T00:59:18.959Z,990.61
2018-10-05T01:00:18.981Z,990.6
2018-10-05T01:01:19.009Z,990.55
2018-10-05T01:02:19.041Z,990.53
2018-10-05T01:03:19.065Z,990.58
2018-10-05T01:04:19.089Z,990.54
2018-10-05T01:05:19.120Z,990.57
2018-10-05T01:06:19.137Z,990.56
2018-10-05T01:07:19.166Z,990.52
2018-10-05T01:08:19.186Z,990.49
2018-10-05T01:09:19.214Z,990.51
2018-10-05T01:10:19.240Z,990.5
2018-10-05T01:11:19.304Z,990.45
2018-10-05T01:12:19.293Z,990.47
2018-10-05T01:13:19.316Z,990.46
2018-10-05T01:14:19.345Z,990.45
2018-10-05T01:15:19.371Z,990.45
2018-10-05T01:16:19.396Z,990.43
2018-10-05T01:17:19.420Z,990.47
2018-10-05T01:18:19.444Z,990.43
2018-10-05T01:19:19.473Z,990.44
2018-10-05T01:20:19.495Z,990.41
2018-10-05T01:21:19.519Z,990.43
2018-10-05T01:22:19.554Z,990.42
2018-10-05T01:23:19.573Z,990.46
2018-10-05T01:24:19.595Z,990.41
2018-10-05T01:25:19.622Z,990.45
2018-10-05T01:26:19.648Z,990.44
2018-10-05T01:27:19.797Z,990.46
2018-10-05T01:28:19.704Z,990.44
2018-10-05T01:29:19.724Z,990.44
2018-10-05T01:30:19.750Z,990.44
2018-10-05T01:31:19.777Z,990.45
2018-10-05T01:32:19.804Z,990.42
2018-10-05T01:33:19.827Z,990.44
2018-10-05T01:34:19.855Z,990.45
2018-10-05T01:35:19.878Z,990.43
2018-10-05T01:36:19.903Z,990.4
2018-10-05T01:37:19.941Z,990.43
2018-10-05T01:38:19.956Z,990.43
2018-10-05T01:39:19.980Z,990.44
2018-10-05T01:40:20.006Z,990.37
2018-10-05T01:41:20.036Z,990.28
2018-10-05T01:42:20.066Z,990.32
2018-10-05T01:43:20.087Z,990.29
2018-10-05T01:44:20.114Z,990.28
2018-10-05T01:45:20.741Z,990.26
2018-10-05T01:46:20.165Z,990.27
2018-10-05T01:47:20.185Z,990.22
2018-10-05T01:48:20.219Z,990.23
2018-10-05T01:49:20.238Z,990.22
2018-10-05T01:50:20.265Z,990.18
2018-10-05T01:51:20.298Z,990.18
2018-10-05T01:52:20.315Z,990.18
2018-10-05T01:53:20.342Z,990.14
2018-10-05T01:54:20.364Z,990.16
2018-10-05T01:55:20.394Z,990.12
2018-10-05T01:56:20.420Z,990.11
2018-10-05T01:57:20.449Z,990.11
2018-10-05T01:58:20.467Z,990.09
2018-10-05T01:59:20.493Z,990.05
2018-10-05T02:00:20.521Z,990.03
2018-10-05T02:01:20.543Z,990.02
2018-10-05T02:02:20.568Z,990.01
2018-10-05T02:03:20.593Z,989.99
2018-10-05T02:04:20.620Z,989.97
2018-10-05T02:05:20.649Z,989.95
2018-10-05T02:06:20.676Z,989.92
2018-10-05T02:07:20.701Z,989.91
2018-10-05T02:08:20.723Z,989.9
2018-10-05T02:09:20.751Z,989.93
2018-10-05T02:10:20.777Z,989.92
2018-10-05T02:11:20.803Z,989.89
2018-10-05T02:12:20.831Z,989.91
2018-10-05T02:14:20.880Z,989.89
2018-10-05T02:15:20.902Z,989.93
2018-10-05T02:16:20.929Z,989.92
2018-10-05T02:17:20.955Z,989.89
2018-10-05T02:18:20.981Z,989.86
2018-10-05T02:19:21.004Z,989.85
2018-10-05T02:20:21.036Z,989.86
2018-10-05T02:21:21.056Z,989.88
2018-10-05T02:22:21.085Z,989.82
2018-10-05T02:23:21.107Z,989.82
2018-10-05T02:24:21.135Z,989.8
2018-10-05T02:25:21.164Z,989.77
2018-10-05T02:26:21.184Z,989.76
2018-10-05T02:27:21.215Z,989.76
2018-10-05T02:29:21.261Z,989.75
2018-10-05T02:30:21.290Z,989.75
2018-10-05T02:31:21.322Z,989.73
2018-10-05T02:32:21.341Z,989.69
2018-10-05T02:33:21.365Z,989.65
2018-10-05T02:34:21.390Z,989.64
2018-10-05T02:35:21.417Z,989.6
2018-10-05T02:36:21.445Z,989.64
2018-10-05T02:38:21.494Z,989.61
2018-10-05T02:39:21.528Z,989.61
2018-10-05T02:40:21.544Z,989.6
2018-10-05T02:41:21.568Z,989.63
2018-10-05T02:42:21.598Z,989.62
2018-10-05T02:43:21.622Z,989.6
2018-10-05T02:44:21.649Z,989.7
2018-10-05T02:45:21.683Z,989.67
2018-10-05T02:46:21.697Z,989.62
2018-10-05T02:47:21.725Z,989.63
2018-10-05T02:48:21.751Z,989.66
2018-10-05T02:49:21.774Z,989.62
2018-10-05T02:50:21.798Z,989.61
2018-10-05T02:51:21.825Z,989.6
2018-10-05T02:52:21.853Z,989.58
2018-10-05T02:53:21.879Z,989.6
2018-10-05T02:54:21.912Z,989.55
2018-10-05T02:55:21.937Z,989.58
2018-10-05T02:56:21.961Z,989.55
2018-10-05T02:57:21.977Z,989.54
2018-10-05T02:58:22.006Z,989.57
2018-10-05T02:59:22.026Z,989.57
2018-10-05T03:00:22.061Z,989.57
2018-10-05T03:01:22.084Z,989.61
2018-10-05T03:02:22.111Z,989.57
2018-10-05T03:03:22.134Z,989.57
2018-10-05T03:04:22.158Z,989.55
2018-10-05T03:05:22.186Z,989.57
2018-10-05T03:06:22.209Z,989.58
2018-10-05T03:07:22.237Z,989.56
2018-10-05T03:08:22.260Z,989.56
2018-10-05T03:09:22.291Z,989.51
2018-10-05T03:10:22.311Z,989.55
2018-10-05T03:11:22.343Z,989.54
2018-10-05T03:12:22.367Z,989.53
2018-10-05T03:13:22.395Z,989.51
2018-10-05T03:14:22.415Z,989.53
2018-10-05T03:15:22.441Z,989.5
2018-10-05T03:16:22.471Z,989.47
2018-10-05T03:17:22.494Z,989.45
2018-10-05T03:18:22.519Z,989.46
2018-10-05T03:19:22.543Z,989.43
2018-10-05T03:20:22.570Z,989.45
2018-10-05T03:21:22.595Z,989.44
2018-10-05T03:22:22.623Z,989.42
2018-10-05T03:24:22.672Z,989.39
2018-10-05T03:25:22.699Z,989.43
2018-10-05T03:26:22.730Z,989.38
2018-10-05T03:27:22.748Z,989.39
2018-10-05T03:28:22.775Z,989.34
2018-10-05T03:29:22.801Z,989.38
2018-10-05T03:30:22.828Z,989.34
2018-10-05T03:31:22.856Z,989.35
2018-10-05T03:32:22.877Z,989.3
2018-10-05T03:33:22.899Z,989.32
2018-10-05T03:34:22.930Z,989.32
2018-10-05T03:35:22.952Z,989.29
2018-10-05T03:36:22.977Z,989.26
2018-10-05T03:37:23.004Z,989.29
2018-10-05T03:38:23.027Z,989.28
2018-10-05T03:39:23.057Z,989.26
2018-10-05T03:40:23.078Z,989.26
2018-10-05T03:41:23.109Z,989.24
2018-10-05T03:42:23.129Z,989.23
2018-10-05T03:43:23.157Z,989.22
2018-10-05T03:44:23.182Z,989.24
2018-10-05T03:45:23.212Z,989.23
2018-10-05T03:46:23.247Z,989.24
2018-10-05T03:47:23.263Z,989.24
2018-10-05T03:48:23.290Z,989.22
2018-10-05T03:49:23.311Z,989.22
2018-10-05T03:50:23.336Z,989.23
2018-10-05T03:51:23.363Z,989.26
2018-10-05T03:52:23.389Z,989.21
2018-10-05T03:53:23.418Z,989.22
2018-10-05T03:54:23.438Z,989.24
2018-10-05T03:55:23.467Z,989.24
2018-10-05T03:56:23.492Z,989.24
2018-10-05T03:57:23.514Z,989.27
2018-10-05T03:58:23.546Z,989.23
2018-10-05T03:59:23.568Z,989.27
2018-10-05T04:00:23.596Z,989.25
2018-10-05T04:01:23.618Z,989.23
2018-10-05T04:02:23.643Z,989.19
2018-10-05T04:03:23.669Z,989.2
2018-10-05T04:04:23.697Z,989.19
2018-10-05T04:05:23.721Z,989.18
2018-10-05T04:06:23.759Z,989.15
2018-10-05T04:07:23.771Z,989.19
2018-10-05T04:08:23.800Z,989.16
2018-10-05T04:09:23.826Z,989.15
2018-10-05T04:10:23.845Z,989.15
2018-10-05T04:11:23.872Z,989.14
2018-10-05T04:12:23.898Z,989.12
2018-10-05T04:13:23.926Z,989.15
2018-10-05T04:14:23.948Z,989.14
2018-10-05T04:15:23.973Z,989.12
2018-10-05T04:16:24.000Z,989.11
2018-10-05T04:17:24.033Z,989.09
2018-10-05T04:18:24.050Z,989.07
2018-10-05T04:19:24.078Z,989.12
2018-10-05T04:20:24.105Z,989.09
2018-10-05T04:21:24.130Z,989.12
2018-10-05T04:22:24.158Z,989.1
2018-10-05T04:23:24.180Z,989.1
2018-10-05T04:24:24.208Z,989.09
2018-10-05T04:25:24.233Z,989.08
2018-10-05T04:26:24.253Z,989.08
2018-10-05T04:27:24.364Z,989.06
2018-10-05T04:28:24.307Z,989.06
2018-10-05T04:29:24.330Z,989.04
2018-10-05T04:30:24.360Z,989.04
2018-10-05T04:31:24.382Z,989.07
2018-10-05T04:32:24.406Z,989.05
2018-10-05T04:33:24.435Z,989.06
2018-10-05T04:34:24.463Z,989.04
2018-10-05T04:35:24.550Z,989.05
2018-10-05T04:36:24.512Z,989.03
2018-10-05T04:37:24.536Z,989.06
2018-10-05T04:38:24.564Z,989.03
2018-10-05T04:39:24.586Z,989.02
2018-10-05T04:40:24.613Z,989.03
2018-10-05T04:41:24.729Z,989.01
2018-10-05T04:42:24.666Z,988.98
2018-10-05T04:43:24.690Z,988.98
2018-10-05T04:44:24.716Z,989.01
2018-10-05T04:45:24.741Z,988.98
2018-10-05T04:46:24.766Z,988.99
2018-10-05T04:47:24.790Z,989
2018-10-05T04:48:24.818Z,989.01
2018-10-05T04:50:24.870Z,989.02
2018-10-05T04:51:24.892Z,989.04
2018-10-05T04:52:24.918Z,989.01
2018-10-05T04:53:24.947Z,989.01
2018-10-05T04:54:24.967Z,989.04
2018-10-05T04:55:24.997Z,989.03
2018-10-05T04:56:25.073Z,989.09
2018-10-05T04:57:25.048Z,989.07
2018-10-05T04:58:25.083Z,989.02
2018-10-05T04:59:25.098Z,989.05
2018-10-05T05:00:25.126Z,989.05
2018-10-05T05:01:25.148Z,989.09
2018-10-05T05:02:25.175Z,989.05
2018-10-05T05:03:25.262Z,989.04
2018-10-05T05:04:25.225Z,989.01
2018-10-05T05:05:25.256Z,989.06
2018-10-05T05:06:25.275Z,989.07
2018-10-05T05:07:25.308Z,989.04
2018-10-05T05:08:25.327Z,989.06
2018-10-05T05:09:25.350Z,989.07
2018-10-05T05:10:25.378Z,989.07
2018-10-05T05:11:25.402Z,989.04
2018-10-05T05:12:25.432Z,989.07
2018-10-05T05:13:25.457Z,989.08
2018-10-05T05:14:25.885Z,989.09
2018-10-05T05:15:25.506Z,989.1
2018-10-05T05:16:25.530Z,989.08
2018-10-05T05:17:25.563Z,989.06
2018-10-05T05:18:25.583Z,989.08
2018-10-05T05:19:25.752Z,989.08
2018-10-05T05:20:25.641Z,989.07
2018-10-05T05:21:25.663Z,989.05
2018-10-05T05:22:25.684Z,989.02
2018-10-05T05:23:25.711Z,989.01
2018-10-05T05:24:25.740Z,988.98
2018-10-05T05:25:25.762Z,988.99
2018-10-05T05:26:25.788Z,988.98
2018-10-05T05:27:25.815Z,988.95
2018-10-05T05:28:25.840Z,988.95
2018-10-05T05:29:25.861Z,988.95
2018-10-05T05:30:25.894Z,988.96
2018-10-05T05:31:25.916Z,988.95
2018-10-05T05:32:25.949Z,988.92
2018-10-05T05:33:25.984Z,988.95
2018-10-05T05:34:25.992Z,988.94
2018-10-05T05:35:26.025Z,988.96
2018-10-05T05:36:26.044Z,988.96
2018-10-05T05:37:26.069Z,988.93
2018-10-05T05:38:26.099Z,988.94
2018-10-05T05:39:26.127Z,988.93
2018-10-05T05:40:26.179Z,988.93
2018-10-05T05:41:26.175Z,988.94
2018-10-05T05:42:26.198Z,988.94
2018-10-05T05:43:26.225Z,988.93
2018-10-05T05:44:26.247Z,988.95
2018-10-05T05:45:26.275Z,988.97
2018-10-05T05:46:26.303Z,988.96
2018-10-05T05:47:26.328Z,988.95
2018-10-05T05:48:26.356Z,988.97
2018-10-05T05:49:26.381Z,988.94
2018-10-05T05:50:26.405Z,988.96
2018-10-05T05:51:26.432Z,988.98
2018-10-05T05:52:26.460Z,988.97
2018-10-05T05:53:26.478Z,988.92
2018-10-05T05:54:26.596Z,988.94
2018-10-05T05:55:26.535Z,988.94
2018-10-05T05:56:26.557Z,988.92
2018-10-05T05:57:26.583Z,988.91
2018-10-05T05:58:26.612Z,988.91
2018-10-05T05:59:26.632Z,988.91
2018-10-05T06:00:26.656Z,988.9
2018-10-05T06:01:26.686Z,988.88
2018-10-05T06:02:26.709Z,988.9
2018-10-05T06:03:26.735Z,988.9
2018-10-05T06:04:26.772Z,988.91
2018-10-05T06:05:26.791Z,988.88
2018-10-05T06:06:26.813Z,988.89
2018-10-05T06:07:26.840Z,988.89
2018-10-05T06:08:26.869Z,988.89
2018-10-05T06:09:26.893Z,988.9
2018-10-05T06:10:26.919Z,988.89
2018-10-05T06:11:26.945Z,988.9
2018-10-05T06:12:26.969Z,988.9
2018-10-05T06:13:26.994Z,988.94
2018-10-05T06:14:27.020Z,988.89
2018-10-05T06:15:27.047Z,988.95
2018-10-05T06:16:27.141Z,988.94
2018-10-05T06:17:27.098Z,988.96
2018-10-05T06:18:27.120Z,988.96
2018-10-05T06:19:27.148Z,988.95
2018-10-05T06:20:27.171Z,988.95
2018-10-05T06:21:27.282Z,988.95
2018-10-05T06:22:27.387Z,988.95
2018-10-05T06:23:27.253Z,988.97
2018-10-05T06:24:27.273Z,988.97
2018-10-05T06:25:27.306Z,988.95
2018-10-05T06:26:27.324Z,988.93
2018-10-05T06:27:27.465Z,988.92
2018-10-05T06:28:27.380Z,988.91
2018-10-05T06:29:27.405Z,988.92
2018-10-05T06:30:27.475Z,988.88
2018-10-05T06:31:27.454Z,988.9
2018-10-05T06:32:27.487Z,988.92
2018-10-05T06:33:27.503Z,988.92
2018-10-05T06:34:27.536Z,988.9
2018-10-05T06:35:27.554Z,988.89
2018-10-05T06:36:27.579Z,988.86
2018-10-05T06:37:27.608Z,988.93
2018-10-05T06:38:27.637Z,988.9
2018-10-05T06:39:27.663Z,988.9
2018-10-05T06:40:27.686Z,988.94
2018-10-05T06:41:27.713Z,988.9
2018-10-05T06:42:27.758Z,988.93
2018-10-05T06:43:27.764Z,988.93
2018-10-05T06:44:27.810Z,988.93
2018-10-05T06:45:27.819Z,988.97
2018-10-05T06:46:27.838Z,988.97
2018-10-05T06:47:27.862Z,989
2018-10-05T06:48:27.893Z,988.99
2018-10-05T06:49:27.913Z,989.01
2018-10-05T06:50:27.939Z,989
2018-10-05T06:51:27.975Z,989
2018-10-05T06:52:28.000Z,989.04
2018-10-05T06:53:28.019Z,989.03
2018-10-05T06:54:28.042Z,989.05
2018-10-05T06:55:28.068Z,989.05
2018-10-05T06:56:28.091Z,989.02
2018-10-05T06:57:28.120Z,989.07
2018-10-05T06:58:28.206Z,989.06
2018-10-05T06:59:28.172Z,989.06
2018-10-05T07:00:28.197Z,989.09
2018-10-05T07:01:28.362Z,989.07
2018-10-05T07:02:28.246Z,989.09
2018-10-05T07:03:28.273Z,989.06
2018-10-05T07:04:28.296Z,989.06
2018-10-05T07:05:28.328Z,989.08
2018-10-05T07:06:28.350Z,989.06
2018-10-05T07:07:28.414Z,989.01
2018-10-05T07:08:28.405Z,989.03
2018-10-05T07:09:28.432Z,989.01
2018-10-05T07:10:28.451Z,989.05
2018-10-05T07:11:28.565Z,989.06
2018-10-05T07:12:28.504Z,988.98
2018-10-05T07:13:28.537Z,988.99
2018-10-05T07:14:28.560Z,989.01
2018-10-05T07:15:28.578Z,988.99
2018-10-05T07:16:28.602Z,988.99
2018-10-05T07:17:28.630Z,989
2018-10-05T07:18:28.655Z,988.96
2018-10-05T07:19:28.677Z,988.99
2018-10-05T07:20:28.707Z,988.97
2018-10-05T07:21:28.875Z,988.99
2018-10-05T07:22:28.870Z,988.9
2018-10-05T07:23:28.786Z,988.94
2018-10-05T07:24:28.806Z,988.92
2018-10-05T07:25:28.835Z,988.93
2018-10-05T07:26:28.861Z,988.94
2018-10-05T07:27:28.887Z,988.91
2018-10-05T07:28:29.102Z,988.95
2018-10-05T07:29:28.941Z,988.97
2018-10-05T07:30:28.962Z,988.98
2018-10-05T07:31:28.991Z,989
2018-10-05T07:32:29.015Z,989.01
2018-10-05T07:33:29.039Z,988.99
2018-10-05T07:34:29.084Z,989.03
2018-10-05T07:35:29.090Z,989.01
2018-10-05T07:36:29.154Z,989.01
2018-10-05T07:37:29.234Z,988.99
2018-10-05T07:38:29.170Z,988.98
2018-10-05T07:39:29.195Z,989.02
2018-10-05T07:40:29.220Z,988.95
2018-10-05T07:41:29.247Z,988.97
2018-10-05T07:42:29.274Z,989.01
2018-10-05T07:43:29.298Z,988.99
2018-10-05T07:44:29.326Z,989.03
2018-10-05T07:45:29.349Z,989.01
